Time;durP1;ratioP1;P1;durP2;ratioP2;P2;SDS_P1;SDS_P2;PMS_P1;PMS_P2;Temp;Humidity;BMP_temperature;BMP_pressure;BME280_temperature;BME280_humidity;BME280_pressure;Samples;Min_cycle;Max_cycle;Signal;HPM_P1;HPM_P2
2024/04/25 00:02:03;;;;;;;6.93;2.15;;;;;;;;;;5183350;27;20004;-78
2024/04/25 00:04:29;;;;;;;4.68;1.92;;;;;;;;;;5179250;27;20015;-78
2024/04/25 00:06:54;;;;;;;4.85;2.17;;;;;;;;;;5161449;27;20016;-78
2024/04/25 00:09:20;;;;;;;4.97;2.10;;;;;;;;;;5151773;27;20118;-78
2024/04/25 00:11:45;;;;;;;4.70;1.90;;;;;;;;;;5157817;27;20096;-78
2024/04/25 00:14:10;;;;;;;4.28;2.25;;;;;;;;;;5155181;27;20014;-78
2024/04/25 00:16:36;;;;;;;4.15;2.17;;;;;;;;;;5152446;27;20015;-78
2024/04/25 00:19:01;;;;;;;4.80;2.08;;;;;;;;;;5151285;27;20023;-78
2024/04/25 00:21:27;;;;;;;7.05;2.05;;;;;;;;;;5181953;27;20050;-78
2024/04/25 00:23:52;;;;;;;4.70;2.05;;;;;;;;;;5158813;27;20479;-78
2024/04/25 00:26:21;;;;;;;4.88;2.10;;;;;;;;;;5152801;27;20004;-78
2024/04/25 00:28:46;;;;;;;3.88;2.00;;;;;;;;;;5152653;27;20012;-78
2024/04/25 00:31:12;;;;;;;7.30;2.15;;;;;;;;;;5155452;27;20521;-78
2024/04/25 00:33:37;;;;;;;4.63;2.20;;;;;;;;;;5153683;27;20004;-84
2024/04/25 00:36:03;;;;;;;4.35;1.98;;;;;;;;;;5173100;27;20009;-85
2024/04/25 00:38:28;;;;;;;5.32;2.35;;;;;;;;;;5152711;27;20402;-84
2024/04/25 00:40:54;;;;;;;5.25;1.90;;;;;;;;;;5154048;27;20005;-84
2024/04/25 00:43:30;;;;;;;5.47;1.90;;;;;;;;;;5157629;27;20771;-79
2024/04/25 00:45:56;;;;;;;4.97;2.55;;;;;;;;;;5158152;27;20023;-78
2024/04/25 00:48:23;;;;;;;5.53;2.38;;;;;;;;;;5157414;27;20538;-78
2024/04/25 00:50:49;;;;;;;5.10;2.13;;;;;;;;;;5154301;27;20009;-78
2024/04/25 00:53:15;;;;;;;6.22;2.22;;;;;;;;;;5187609;27;20012;-78
2024/04/25 00:55:41;;;;;;;7.00;2.58;;;;;;;;;;5156693;27;20001;-78
2024/04/25 00:58:09;;;;;;;7.15;2.10;;;;;;;;;;5180040;27;20001;-78
2024/04/25 01:00:37;;;;;;;5.53;2.10;;;;;;;;;;5154036;27;20005;-85
2024/04/25 01:03:04;;;;;;;5.93;2.50;;;;;;;;;;5182319;21;20004;-81
2024/04/25 01:05:31;;;;;;;6.20;2.20;;;;;;;;;;5195074;27;20474;-82
2024/04/25 01:07:57;;;;;;;5.80;2.92;;;;;;;;;;5145303;27;20498;-81
2024/04/25 01:10:23;;;;;;;5.30;2.20;;;;;;;;;;5168010;27;20000;-80
2024/04/25 01:12:48;;;;;;;8.35;2.20;;;;;;;;;;5169241;27;20018;-80
2024/04/25 01:15:14;;;;;;;6.30;2.47;;;;;;;;;;5197362;27;20008;-80
2024/04/25 01:17:39;;;;;;;3.90;1.90;;;;;;;;;;5170773;27;20374;-81
2024/04/25 01:20:06;;;;;;;6.70;2.33;;;;;;;;;;5164784;27;20022;-81
2024/04/25 01:22:48;;;;;;;7.85;2.40;;;;;;;;;;5166602;27;20008;-81
2024/04/25 01:25:14;;;;;;;5.28;1.90;;;;;;;;;;5167423;27;20476;-80
2024/04/25 01:27:41;;;;;;;6.75;2.20;;;;;;;;;;5171406;27;20027;-80
2024/04/25 01:30:09;;;;;;;7.25;1.90;;;;;;;;;;5171887;27;20336;-81
2024/04/25 01:32:36;;;;;;;5.13;1.80;;;;;;;;;;5167616;27;20036;-81
2024/04/25 01:35:05;;;;;;;8.35;1.90;;;;;;;;;;5169861;27;20037;-81
2024/04/25 01:37:31;;;;;;;5.30;1.88;;;;;;;;;;5181881;27;20008;-80
2024/04/25 01:39:56;;;;;;;4.70;1.75;;;;;;;;;;5175181;27;20044;-82
2024/04/25 01:42:22;;;;;;;4.93;1.70;;;;;;;;;;5166372;27;20015;-81
2024/04/25 01:44:47;;;;;;;4.28;1.65;;;;;;;;;;5201608;27;20467;-80
2024/04/25 01:47:12;;;;;;;5.10;1.88;;;;;;;;;;5171415;27;20003;-81
2024/04/25 01:49:38;;;;;;;5.40;1.98;;;;;;;;;;5197809;27;20472;-81
2024/04/25 01:52:03;;;;;;;6.85;1.70;;;;;;;;;;5176379;27;20000;-83
2024/04/25 01:54:29;;;;;;;8.40;1.92;;;;;;;;;;5198396;27;20552;-83
2024/04/25 01:56:54;;;;;;;6.78;1.73;;;;;;;;;;5176951;27;20003;-83
2024/04/25 01:59:20;;;;;;;4.40;1.50;;;;;;;;;;5197212;27;20000;-79
2024/04/25 02:01:45;;;;;;;6.18;1.58;;;;;;;;;;5172705;27;19999;-79
2024/04/25 02:04:10;;;;;;;5.32;1.50;;;;;;;;;;5180031;27;20004;-80
2024/04/25 02:06:36;;;;;;;5.30;1.73;;;;;;;;;;5174171;27;20000;-79
2024/04/25 02:09:01;;;;;;;5.55;1.83;;;;;;;;;;5175507;27;20055;-79
2024/04/25 02:11:27;;;;;;;6.20;1.95;;;;;;;;;;5158724;27;20395;-83
2024/04/25 02:13:52;;;;;;;5.68;1.83;;;;;;;;;;5145942;27;20421;-82
2024/04/25 02:16:17;;;;;;;7.10;1.52;;;;;;;;;;5145661;27;20008;-82
2024/04/25 02:18:43;;;;;;;4.70;1.65;;;;;;;;;;5148945;27;20467;-81
2024/04/25 02:26:36;;;;;;;6.38;1.88;;;;;;;;;;5165636;27;20416;-82
2024/04/25 02:29:02;;;;;;;5.75;1.70;;;;;;;;;;5171260;27;20020;-81
2024/04/25 02:31:31;;;;;;;4.38;1.45;;;;;;;;;;5170313;27;20044;-82
2024/04/25 02:33:57;;;;;;;3.70;1.52;;;;;;;;;;5156984;27;20004;-82
2024/04/25 02:36:22;;;;;;;3.75;1.40;;;;;;;;;;5162885;27;20015;-82
2024/04/25 02:38:48;;;;;;;5.97;1.80;;;;;;;;;;5147908;27;20021;-82
2024/04/25 02:41:13;;;;;;;4.95;1.70;;;;;;;;;;5140968;27;20011;-82
2024/04/25 02:43:39;;;;;;;5.25;1.50;;;;;;;;;;5172477;27;20012;-81
2024/04/25 02:46:04;;;;;;;5.00;1.77;;;;;;;;;;5137987;27;20016;-82
2024/04/25 02:48:29;;;;;;;3.85;1.73;;;;;;;;;;5143837;27;20004;-82
2024/04/25 02:50:55;;;;;;;6.50;1.92;;;;;;;;;;5146249;27;20015;-82
2024/04/25 02:53:21;;;;;;;6.60;2.08;;;;;;;;;;5142420;27;20012;-81
2024/04/25 02:55:46;;;;;;;6.25;2.33;;;;;;;;;;5172786;27;20000;-82
2024/04/25 02:58:11;;;;;;;7.35;2.22;;;;;;;;;;5169454;27;20008;-82
2024/04/25 03:00:37;;;;;;;7.38;2.30;;;;;;;;;;5147962;27;20040;-82
2024/04/25 03:03:02;;;;;;;6.28;1.98;;;;;;;;;;5167756;27;20464;-82
2024/04/25 03:05:28;;;;;;;6.88;2.47;;;;;;;;;;5171977;27;20089;-82
2024/04/25 03:07:53;;;;;;;5.65;2.20;;;;;;;;;;5149935;27;20016;-82
2024/04/25 03:10:19;;;;;;;6.15;2.28;;;;;;;;;;5168493;27;20019;-82
2024/04/25 03:12:44;;;;;;;4.05;2.22;;;;;;;;;;5143442;27;20781;-82
2024/04/25 03:15:10;;;;;;;8.23;2.50;;;;;;;;;;5142821;27;20345;-82
2024/04/25 03:17:35;;;;;;;7.35;2.65;;;;;;;;;;5147691;27;20440;-82
2024/04/25 03:20:01;;;;;;;7.00;2.67;;;;;;;;;;5151240;27;20070;-82
2024/04/25 03:22:27;;;;;;;6.55;2.45;;;;;;;;;;5145405;27;20083;-82
2024/04/25 03:24:52;;;;;;;7.13;2.50;;;;;;;;;;5143825;27;20016;-82
2024/04/25 03:27:18;;;;;;;5.43;2.17;;;;;;;;;;5143368;27;20023;-81
2024/04/25 03:29:43;;;;;;;5.30;2.13;;;;;;;;;;5168249;27;20005;-79
2024/04/25 03:32:08;;;;;;;4.40;2.08;;;;;;;;;;5170385;27;20019;-79
2024/04/25 03:34:35;;;;;;;5.78;2.15;;;;;;;;;;5138796;27;20024;-82
2024/04/25 03:37:00;;;;;;;7.00;2.70;;;;;;;;;;5178201;27;20004;-82
2024/04/25 03:39:26;;;;;;;5.40;2.20;;;;;;;;;;5141448;27;20079;-83
2024/04/25 03:41:51;;;;;;;4.40;2.05;;;;;;;;;;5149914;27;20012;-83
2024/04/25 03:44:17;;;;;;;3.95;2.08;;;;;;;;;;5139874;27;20004;-82
2024/04/25 03:46:44;;;;;;;4.18;2.20;;;;;;;;;;5173194;27;20352;-83
2024/04/25 03:49:10;;;;;;;6.55;2.33;;;;;;;;;;5140001;27;20013;-83
2024/04/25 03:51:36;;;;;;;6.70;2.10;;;;;;;;;;5148370;27;20001;-83
2024/04/25 03:54:02;;;;;;;6.40;2.60;;;;;;;;;;5175501;27;20425;-83
2024/04/25 03:56:28;;;;;;;7.75;2.60;;;;;;;;;;5140104;27;20481;-84
2024/04/25 03:58:53;;;;;;;7.05;2.47;;;;;;;;;;5144780;27;20090;-83
2024/04/25 04:01:18;;;;;;;8.32;2.17;;;;;;;;;;5146167;27;20001;-83
2024/04/25 04:03:44;;;;;;;6.30;2.25;;;;;;;;;;5142768;27;20073;-83
2024/04/25 04:06:09;;;;;;;6.60;1.80;;;;;;;;;;5142278;27;20000;-82
2024/04/25 04:08:36;;;;;;;5.90;1.85;;;;;;;;;;5171756;27;20013;-83
2024/04/25 04:11:01;;;;;;;4.18;1.85;;;;;;;;;;5140265;27;22233;-83
2024/04/25 04:13:27;;;;;;;4.35;1.75;;;;;;;;;;5143707;27;20000;-83
2024/04/25 04:15:52;;;;;;;4.95;2.00;;;;;;;;;;5155046;27;20354;-83
2024/04/25 04:18:18;;;;;;;5.57;2.17;;;;;;;;;;5173356;27;20005;-83
2024/04/25 04:20:44;;;;;;;8.00;1.95;;;;;;;;;;5178354;27;20003;-84
2024/04/25 04:23:10;;;;;;;6.25;2.17;;;;;;;;;;5141313;27;20012;-83
2024/04/25 04:25:36;;;;;;;4.75;2.00;;;;;;;;;;5138868;27;20088;-82
2024/04/25 04:28:01;;;;;;;4.25;2.00;;;;;;;;;;5144256;27;20011;-83
2024/04/25 04:30:27;;;;;;;4.53;2.20;;;;;;;;;;5170718;27;20080;-83
2024/04/25 04:32:53;;;;;;;5.38;1.85;;;;;;;;;;5170496;27;20047;-82
2024/04/25 04:35:21;;;;;;;5.05;2.10;;;;;;;;;;5168135;27;20357;-83
2024/04/25 04:37:47;;;;;;;6.57;2.20;;;;;;;;;;5170441;27;20015;-82
2024/04/25 04:40:12;;;;;;;5.50;2.20;;;;;;;;;;5138651;27;20008;-82
2024/04/25 04:42:37;;;;;;;4.65;2.08;;;;;;;;;;5164228;27;20376;-82
2024/04/25 04:45:03;;;;;;;6.47;2.10;;;;;;;;;;5138001;27;20023;-82
2024/04/25 04:47:28;;;;;;;4.72;2.10;;;;;;;;;;5140079;27;20001;-82
2024/04/25 04:49:54;;;;;;;5.32;1.90;;;;;;;;;;5137301;27;20137;-81
2024/04/25 04:52:20;;;;;;;4.97;2.17;;;;;;;;;;5150457;27;20003;-81
2024/04/25 04:54:45;;;;;;;4.97;2.33;;;;;;;;;;5177070;27;20012;-81
2024/04/25 04:57:11;;;;;;;5.60;2.35;;;;;;;;;;5147475;27;20001;-80
2024/04/25 04:59:36;;;;;;;6.13;2.30;;;;;;;;;;5176142;27;20013;-80
2024/04/25 05:02:02;;;;;;;5.65;2.70;;;;;;;;;;5145378;27;20023;-80
2024/04/25 05:04:28;;;;;;;8.18;2.40;;;;;;;;;;5143087;27;20015;-80
2024/04/25 05:06:55;;;;;;;5.72;2.40;;;;;;;;;;5142044;27;20009;-80
2024/04/25 05:09:21;;;;;;;8.18;2.30;;;;;;;;;;5166064;27;20004;-81
2024/04/25 05:11:46;;;;;;;6.03;2.47;;;;;;;;;;5139595;27;20027;-81
2024/04/25 05:14:15;;;;;;;4.82;2.30;;;;;;;;;;5144771;27;20000;-80
2024/04/25 05:16:41;;;;;;;8.45;2.58;;;;;;;;;;5140991;27;20001;-80
2024/04/25 05:19:06;;;;;;;6.57;2.15;;;;;;;;;;5142112;27;20019;-80
2024/04/25 05:21:32;;;;;;;5.85;2.40;;;;;;;;;;5147165;27;20005;-79
2024/04/25 05:24:00;;;;;;;5.55;2.45;;;;;;;;;;5144241;27;20016;-80
2024/04/25 05:26:27;;;;;;;7.00;2.15;;;;;;;;;;5139462;27;20004;-80
2024/04/25 05:28:53;;;;;;;5.65;2.40;;;;;;;;;;5138070;27;20016;-80
2024/04/25 05:31:21;;;;;;;7.13;2.35;;;;;;;;;;5171381;27;20004;-80
2024/04/25 05:33:50;;;;;;;3.85;1.95;;;;;;;;;;5147291;27;20000;-80
2024/04/25 05:36:15;;;;;;;6.47;2.20;;;;;;;;;;5142447;27;20542;-80
2024/04/25 05:38:41;;;;;;;3.80;2.10;;;;;;;;;;5142295;27;20008;-80
2024/04/25 05:41:06;;;;;;;5.32;1.90;;;;;;;;;;5141928;27;20012;-80
2024/04/25 05:43:32;;;;;;;3.95;2.00;;;;;;;;;;5165677;27;20008;-80
2024/04/25 05:45:58;;;;;;;3.72;1.80;;;;;;;;;;5143114;27;20041;-80
2024/04/25 05:48:31;;;;;;;4.57;1.88;;;;;;;;;;5142939;27;20009;-80
2024/04/25 05:50:57;;;;;;;4.43;1.75;;;;;;;;;;5140119;27;20084;-81
2024/04/25 05:53:23;;;;;;;6.40;1.83;;;;;;;;;;5164186;27;20020;-81
2024/04/25 05:55:48;;;;;;;6.35;2.17;;;;;;;;;;5141013;27;20032;-81
2024/04/25 05:58:13;;;;;;;4.88;2.00;;;;;;;;;;5141739;27;20009;-80
2024/04/25 06:00:39;;;;;;;6.60;2.20;;;;;;;;;;5138569;27;20004;-82
2024/04/25 06:03:04;;;;;;;4.72;1.70;;;;;;;;;;5168547;27;20011;-78
2024/04/25 06:05:30;;;;;;;11.20;2.58;;;;;;;;;;5140244;27;20004;-79
2024/04/25 06:07:56;;;;;;;4.25;2.00;;;;;;;;;;5145726;27;20005;-77
2024/04/25 06:10:21;;;;;;;4.53;1.90;;;;;;;;;;5172964;27;20018;-78
2024/04/25 06:12:47;;;;;;;3.20;1.90;;;;;;;;;;5177332;27;20015;-78
2024/04/25 06:15:13;;;;;;;6.20;2.20;;;;;;;;;;5147639;27;20020;-78
2024/04/25 06:17:42;;;;;;;5.65;1.98;;;;;;;;;;5142589;27;20008;-78
2024/04/25 06:20:10;;;;;;;4.03;2.38;;;;;;;;;;5134435;27;22440;-78
2024/04/25 06:22:36;;;;;;;6.85;3.08;;;;;;;;;;5138479;27;20012;-78
2024/04/25 06:25:03;;;;;;;5.95;2.55;;;;;;;;;;5181133;27;21177;-81
2024/04/25 06:27:32;;;;;;;6.15;2.63;;;;;;;;;;5161154;27;20453;-81
2024/04/25 06:29:57;;;;;;;5.75;2.80;;;;;;;;;;5158365;27;20448;-81
2024/04/25 06:32:23;;;;;;;7.22;3.63;;;;;;;;;;5170599;27;20087;-81
2024/04/25 06:34:50;;;;;;;7.05;3.60;;;;;;;;;;5151002;27;20015;-81
2024/04/25 06:37:19;;;;;;;9.60;4.10;;;;;;;;;;5150341;27;20004;-81
2024/04/25 06:39:45;;;;;;;6.95;3.55;;;;;;;;;;5171628;27;20034;-81
2024/04/25 06:42:11;;;;;;;8.02;3.90;;;;;;;;;;5139552;27;20018;-80
2024/04/25 06:44:38;;;;;;;6.72;3.50;;;;;;;;;;5170065;27;20360;-81
2024/04/25 06:47:04;;;;;;;7.03;3.63;;;;;;;;;;5147132;27;20004;-81
2024/04/25 06:49:29;;;;;;;8.00;3.20;;;;;;;;;;5136606;27;20017;-80
2024/04/25 06:51:55;;;;;;;8.65;3.40;;;;;;;;;;5169396;27;20000;-81
2024/04/25 06:54:20;;;;;;;7.22;2.90;;;;;;;;;;5174140;27;20120;-80
2024/04/25 06:56:46;;;;;;;7.05;2.50;;;;;;;;;;5146803;27;20080;-81
2024/04/25 06:59:11;;;;;;;4.50;1.90;;;;;;;;;;5141553;27;19997;-81
2024/04/25 07:01:40;;;;;;;5.65;2.03;;;;;;;;;;5166593;27;20049;-80
2024/04/25 07:04:05;;;;;;;4.60;1.08;;;;;;;;;;5160675;27;20325;-81
2024/04/25 07:06:31;;;;;;;4.78;1.40;;;;;;;;;;5175662;27;20015;-81
2024/04/25 07:09:01;;;;;;;4.40;1.33;;;;;;;;;;5166592;27;20000;-80
2024/04/25 07:11:27;;;;;;;4.13;1.73;;;;;;;;;;5142029;27;20086;-80
2024/04/25 07:13:52;;;;;;;4.53;1.52;;;;;;;;;;5139926;27;20005;-79
2024/04/25 07:16:18;;;;;;;3.30;1.67;;;;;;;;;;5149137;27;20012;-80
2024/04/25 07:18:43;;;;;;;5.78;1.92;;;;;;;;;;5149623;27;20004;-81
2024/04/25 07:21:09;;;;;;;6.10;1.58;;;;;;;;;;5177717;27;20015;-81
2024/04/25 07:23:34;;;;;;;5.63;1.55;;;;;;;;;;5147196;27;20000;-81
2024/04/25 07:25:59;;;;;;;7.65;1.55;;;;;;;;;;5145649;27;20026;-82
2024/04/25 07:28:25;;;;;;;3.95;1.48;;;;;;;;;;5179946;27;20012;-82
2024/04/25 07:30:50;;;;;;;4.93;1.60;;;;;;;;;;5154914;27;20481;-81
2024/04/25 07:33:16;;;;;;;5.57;1.60;;;;;;;;;;5177371;27;20027;-82
2024/04/25 07:35:48;;;;;;;7.03;2.08;;;;;;;;;;5177590;27;20488;-81
2024/04/25 07:38:14;;;;;;;4.97;1.80;;;;;;;;;;5153157;27;20015;-81
2024/04/25 07:40:39;;;;;;;5.13;2.25;;;;;;;;;;5138204;27;20460;-78
2024/04/25 07:43:05;;;;;;;5.22;2.83;;;;;;;;;;5136664;27;20012;-78
2024/04/25 07:45:30;;;;;;;7.35;3.35;;;;;;;;;;5165975;27;20004;-78
2024/04/25 07:47:55;;;;;;;6.82;3.70;;;;;;;;;;5174330;27;20460;-79
2024/04/25 07:50:24;;;;;;;6.47;3.42;;;;;;;;;;5140909;27;20445;-78
2024/04/25 07:52:49;;;;;;;9.30;3.58;;;;;;;;;;5143307;27;20005;-80
2024/04/25 07:55:15;;;;;;;6.78;3.90;;;;;;;;;;5173651;27;20455;-81
2024/04/25 07:57:40;;;;;;;7.15;3.20;;;;;;;;;;5138498;27;20019;-81
2024/04/25 08:00:07;;;;;;;7.28;3.53;;;;;;;;;;5144618;27;20000;-81
2024/04/25 08:02:37;;;;;;;7.93;3.80;;;;;;;;;;5165422;27;20015;-81
2024/04/25 08:05:05;;;;;;;6.97;3.30;;;;;;;;;;5167497;27;20012;-80
2024/04/25 08:07:31;;;;;;;6.75;3.38;;;;;;;;;;5137677;27;20015;-81
2024/04/25 08:09:56;;;;;;;8.30;2.95;;;;;;;;;;5163115;27;20040;-80
2024/04/25 08:12:23;;;;;;;5.32;2.83;;;;;;;;;;5165786;27;20028;-81
2024/04/25 08:14:49;;;;;;;6.45;3.10;;;;;;;;;;5148889;27;20354;-81
2024/04/25 08:17:14;;;;;;;8.43;3.17;;;;;;;;;;5142870;27;20008;-81
2024/04/25 08:19:40;;;;;;;6.55;2.90;;;;;;;;;;5137923;27;20077;-78
2024/04/25 08:22:05;;;;;;;5.35;2.70;;;;;;;;;;5137303;27;20012;-79
2024/04/25 08:24:31;;;;;;;9.77;2.60;;;;;;;;;;5139502;27;20005;-80
2024/04/25 08:26:56;;;;;;;6.07;2.83;;;;;;;;;;5137013;27;20005;-80
2024/04/25 08:29:22;;;;;;;10.65;3.05;;;;;;;;;;5147326;27;20008;-81
2024/04/25 08:31:47;;;;;;;6.10;3.45;;;;;;;;;;5149953;27;20004;-78
2024/04/25 08:34:16;;;;;;;7.70;3.28;;;;;;;;;;5137924;27;20016;-79
2024/04/25 08:36:41;;;;;;;6.40;2.78;;;;;;;;;;5142967;27;20000;-78
2024/04/25 08:39:06;;;;;;;7.80;3.15;;;;;;;;;;5160458;27;20057;-78
2024/04/25 08:41:34;;;;;;;8.10;3.40;;;;;;;;;;5170396;27;20016;-79
2024/04/25 08:44:00;;;;;;;5.65;2.70;;;;;;;;;;5138622;27;20015;-80
2024/04/25 08:46:26;;;;;;;4.72;2.47;;;;;;;;;;5139406;27;20020;-81
2024/04/25 08:48:53;;;;;;;5.40;2.83;;;;;;;;;;5148473;27;20570;-80
2024/04/25 08:51:25;;;;;;;6.97;2.70;;;;;;;;;;5148945;27;20019;-80
2024/04/25 08:53:54;;;;;;;8.75;2.65;;;;;;;;;;5144847;27;20013;-80
2024/04/25 08:56:22;;;;;;;7.20;2.72;;;;;;;;;;5149013;27;20012;-80
2024/04/25 08:58:48;;;;;;;6.90;3.10;;;;;;;;;;5148856;27;20004;-80
2024/04/25 09:01:15;;;;;;;10.38;3.35;;;;;;;;;;5146110;27;20019;-81
2024/04/25 09:03:43;;;;;;;7.57;2.78;;;;;;;;;;5152711;27;20383;-81
2024/04/25 09:06:11;;;;;;;5.65;2.63;;;;;;;;;;5175273;27;20001;-81
2024/04/25 09:08:39;;;;;;;8.15;2.80;;;;;;;;;;5182897;27;20014;-80
2024/04/25 09:11:04;;;;;;;4.93;2.30;;;;;;;;;;5160659;27;20004;-80
2024/04/25 09:13:30;;;;;;;6.63;2.50;;;;;;;;;;5145545;27;20027;-80
2024/04/25 09:15:59;;;;;;;6.85;2.78;;;;;;;;;;5153020;27;20083;-80
2024/04/25 09:18:25;;;;;;;6.65;2.88;;;;;;;;;;5147414;27;20048;-81
2024/04/25 09:20:51;;;;;;;7.75;2.85;;;;;;;;;;5148751;27;20004;-80
2024/04/25 09:23:16;;;;;;;6.30;2.80;;;;;;;;;;5178178;27;20456;-80
2024/04/25 09:25:42;;;;;;;5.88;3.05;;;;;;;;;;5181753;27;20027;-81
2024/04/25 09:28:07;;;;;;;7.18;2.90;;;;;;;;;;5107926;27;20010;-79
2024/04/25 09:30:33;;;;;;;7.47;2.95;;;;;;;;;;5126161;27;20057;-79
2024/04/25 09:33:02;;;;;;;6.13;3.10;;;;;;;;;;5145630;27;20008;-80
2024/04/25 09:35:28;;;;;;;7.85;3.13;;;;;;;;;;5128190;27;20023;-79
2024/04/25 09:37:53;;;;;;;8.27;2.70;;;;;;;;;;5165096;27;20531;-79
2024/04/25 09:40:18;;;;;;;5.97;1.80;;;;;;;;;;5119839;27;20016;-79
2024/04/25 09:42:45;;;;;;;6.03;2.20;;;;;;;;;;5160597;27;20567;-79
2024/04/25 09:45:12;;;;;;;7.88;2.40;;;;;;;;;;5125327;27;20012;-79
2024/04/25 09:47:55;;;;;;;6.78;2.70;;;;;;;;;;5129438;27;20091;-79
2024/04/25 09:50:26;;;;;;;4.97;2.40;;;;;;;;;;5121045;27;20412;-80
2024/04/25 09:53:03;;;;;;;6.47;2.20;;;;;;;;;;5114297;27;20011;-79
2024/04/25 09:55:38;;;;;;;4.32;1.80;;;;;;;;;;5113535;27;20027;-79
2024/04/25 09:58:06;;;;;;;9.02;2.08;;;;;;;;;;5114593;27;20134;-78
2024/04/25 10:00:33;;;;;;;3.28;1.75;;;;;;;;;;5125545;27;20639;-79
2024/04/25 10:03:02;;;;;;;5.47;1.70;;;;;;;;;;5123645;27;20012;-79
2024/04/25 10:05:28;;;;;;;5.72;1.70;;;;;;;;;;5123713;27;20005;-79
2024/04/25 10:07:54;;;;;;;5.43;1.95;;;;;;;;;;5096031;27;22799;-79
2024/04/25 10:10:20;;;;;;;6.68;2.10;;;;;;;;;;5115629;27;20061;-79
2024/04/25 10:12:51;;;;;;;6.50;2.20;;;;;;;;;;5132046;27;20016;-79
2024/04/25 10:15:26;;;;;;;7.78;2.25;;;;;;;;;;5149781;27;20004;-79
2024/04/25 10:17:52;;;;;;;4.78;2.08;;;;;;;;;;5124682;27;20836;-79
2024/04/25 10:20:21;;;;;;;4.97;2.15;;;;;;;;;;5099340;27;20021;-79
2024/04/25 10:22:57;;;;;;;9.30;2.47;;;;;;;;;;5105094;27;21738;-79
2024/04/25 10:25:24;;;;;;;6.93;2.13;;;;;;;;;;5152741;27;20437;-79
2024/04/25 10:28:03;;;;;;;7.07;2.35;;;;;;;;;;5116361;27;20366;-79
2024/04/25 10:30:29;;;;;;;5.88;2.25;;;;;;;;;;5103772;27;20067;-78
2024/04/25 10:32:57;;;;;;;7.28;2.33;;;;;;;;;;5145255;27;20047;-79
2024/04/25 10:35:23;;;;;;;3.90;2.30;;;;;;;;;;5120770;27;20446;-79
2024/04/25 10:37:52;;;;;;;6.82;2.30;;;;;;;;;;5145743;27;20016;-78
2024/04/25 10:40:19;;;;;;;4.20;2.33;;;;;;;;;;5084167;27;20450;-79
2024/04/25 10:42:56;;;;;;;4.93;2.40;;;;;;;;;;5124565;27;20028;-78
2024/04/25 10:45:25;;;;;;;4.97;2.35;;;;;;;;;;5152541;27;20505;-79
2024/04/25 10:47:51;;;;;;;7.25;2.67;;;;;;;;;;5138334;27;20005;-79
2024/04/25 10:50:17;;;;;;;5.40;3.00;;;;;;;;;;5104481;27;20027;-79
2024/04/25 10:52:42;;;;;;;11.98;3.22;;;;;;;;;;5142796;27;20008;-79
2024/04/25 10:55:08;;;;;;;5.80;3.05;;;;;;;;;;5115181;27;20005;-79
2024/04/25 10:57:33;;;;;;;7.78;3.20;;;;;;;;;;5150779;27;20009;-77
2024/04/25 11:00:00;;;;;;;8.80;3.10;;;;;;;;;;5115717;27;20004;-75
2024/04/25 11:02:33;;;;;;;5.25;2.90;;;;;;;;;;5127025;27;20012;-79
2024/04/25 11:04:59;;;;;;;8.25;3.00;;;;;;;;;;5127877;27;20045;-76
2024/04/25 11:07:24;;;;;;;7.85;2.80;;;;;;;;;;5105461;27;20009;-77
2024/04/25 11:09:50;;;;;;;4.13;2.25;;;;;;;;;;5134446;27;20005;-75
2024/04/25 11:12:16;;;;;;;5.68;2.60;;;;;;;;;;5137127;27;20016;-76
2024/04/25 11:14:41;;;;;;;8.05;2.90;;;;;;;;;;5120914;27;20008;-77
2024/04/25 11:17:07;;;;;;;5.75;2.72;;;;;;;;;;5141239;27;20004;-77
2024/04/25 11:19:33;;;;;;;6.03;3.05;;;;;;;;;;5128350;27;20032;-80
2024/04/25 11:21:58;;;;;;;5.53;2.90;;;;;;;;;;5130354;27;20004;-77
2024/04/25 11:24:24;;;;;;;5.70;2.63;;;;;;;;;;5117126;27;20127;-76
2024/04/25 11:26:50;;;;;;;5.80;3.22;;;;;;;;;;5107798;27;20012;-77
2024/04/25 11:29:16;;;;;;;6.85;3.35;;;;;;;;;;5112181;27;20024;-80
2024/04/25 11:31:42;;;;;;;7.65;4.07;;;;;;;;;;5151675;27;20001;-78
2024/04/25 11:34:28;;;;;;;9.70;4.55;;;;;;;;;;5111437;27;20321;-80
2024/04/25 11:36:57;;;;;;;7.00;3.85;;;;;;;;;;5148518;27;20020;-77
2024/04/25 11:39:22;;;;;;;8.73;4.00;;;;;;;;;;5108552;27;20480;-79
2024/04/25 11:41:48;;;;;;;9.55;4.05;;;;;;;;;;5154964;27;20023;-79
2024/04/25 11:44:13;;;;;;;8.15;3.83;;;;;;;;;;5156765;27;20012;-79
2024/04/25 11:46:40;;;;;;;9.00;3.65;;;;;;;;;;5107432;27;20012;-78
2024/04/25 11:49:05;;;;;;;7.90;4.15;;;;;;;;;;5123009;27;20088;-80
2024/04/25 11:51:31;;;;;;;8.70;3.80;;;;;;;;;;5152532;27;20008;-78
2024/04/25 11:53:57;;;;;;;6.13;3.55;;;;;;;;;;5149691;27;20059;-78
2024/04/25 11:56:25;;;;;;;6.97;3.65;;;;;;;;;;5126896;27;20041;-79
2024/04/25 11:58:51;;;;;;;6.20;3.92;;;;;;;;;;5139245;27;20349;-78
2024/04/25 12:01:17;;;;;;;7.53;4.18;;;;;;;;;;5138831;27;20043;-79
2024/04/25 12:03:42;;;;;;;10.07;4.30;;;;;;;;;;5156978;27;20691;-78
2024/04/25 12:06:08;;;;;;;8.88;4.13;;;;;;;;;;5143822;27;20044;-79
2024/04/25 12:08:37;;;;;;;8.50;4.20;;;;;;;;;;5168583;27;19996;-79
2024/04/25 12:11:03;;;;;;;8.82;4.30;;;;;;;;;;5129650;27;20076;-79
2024/04/25 12:13:29;;;;;;;5.78;3.92;;;;;;;;;;5163510;27;20030;-78
2024/04/25 12:15:54;;;;;;;8.82;3.88;;;;;;;;;;5146323;27;20001;-79
2024/04/25 12:18:20;;;;;;;7.13;3.80;;;;;;;;;;5167296;27;20012;-80
2024/04/25 12:20:46;;;;;;;9.98;3.85;;;;;;;;;;5178723;27;20492;-78
2024/04/25 12:23:11;;;;;;;7.70;3.75;;;;;;;;;;5135425;27;20020;-79
2024/04/25 12:25:37;;;;;;;9.63;3.42;;;;;;;;;;5142347;27;20012;-78
2024/04/25 12:28:03;;;;;;;7.35;3.50;;;;;;;;;;5162469;27;20016;-78
2024/04/25 12:30:53;;;;;;;8.18;3.90;;;;;;;;;;5137198;27;20004;-79
2024/04/25 12:33:18;;;;;;;6.93;3.28;;;;;;;;;;5125370;27;20011;-78
2024/04/25 12:35:46;;;;;;;8.35;3.63;;;;;;;;;;5168498;27;20019;-79
2024/04/25 12:38:12;;;;;;;7.60;3.53;;;;;;;;;;5164734;27;20392;-78
2024/04/25 12:40:37;;;;;;;9.63;3.80;;;;;;;;;;5135737;27;20012;-78
2024/04/25 12:43:04;;;;;;;8.13;3.72;;;;;;;;;;5162497;27;20558;-79
2024/04/25 12:45:34;;;;;;;8.07;3.72;;;;;;;;;;5152895;27;20337;-78
2024/04/25 12:48:04;;;;;;;7.80;4.10;;;;;;;;;;5135510;27;20019;-79
2024/04/25 12:50:29;;;;;;;8.68;4.00;;;;;;;;;;5165713;27;20012;-78
2024/04/25 12:52:58;;;;;;;6.53;3.85;;;;;;;;;;5128335;27;20160;-78
2024/04/25 12:55:27;;;;;;;9.13;4.57;;;;;;;;;;5134585;27;20325;-79
2024/04/25 12:57:57;;;;;;;7.57;3.58;;;;;;;;;;5171179;27;20349;-78
2024/04/25 13:00:25;;;;;;;7.75;3.50;;;;;;;;;;5160216;27;20016;-79
2024/04/25 13:02:51;;;;;;;7.05;3.33;;;;;;;;;;5137999;27;20016;-78
2024/04/25 13:05:17;;;;;;;7.38;3.40;;;;;;;;;;5138945;27;20016;-78
2024/04/25 13:07:43;;;;;;;8.57;3.42;;;;;;;;;;5167664;27;20004;-79
2024/04/25 13:10:09;;;;;;;7.70;3.65;;;;;;;;;;5142093;27;20023;-78
2024/04/25 13:12:34;;;;;;;7.85;3.70;;;;;;;;;;5134178;27;20016;-79
2024/04/25 13:15:00;;;;;;;7.07;2.97;;;;;;;;;;5179715;27;20004;-78
2024/04/25 13:17:25;;;;;;;6.15;3.28;;;;;;;;;;5155194;27;20008;-79
2024/04/25 13:19:51;;;;;;;9.32;3.50;;;;;;;;;;5148001;27;20397;-79
2024/04/25 13:22:16;;;;;;;7.07;3.20;;;;;;;;;;5143872;27;20024;-79
2024/04/25 13:24:42;;;;;;;7.80;3.55;;;;;;;;;;5186241;27;20016;-80
2024/04/25 13:27:07;;;;;;;5.95;3.45;;;;;;;;;;5178466;27;20008;-81
2024/04/25 13:29:35;;;;;;;6.28;3.13;;;;;;;;;;5181780;27;19988;-79
2024/04/25 13:32:00;;;;;;;7.30;3.33;;;;;;;;;;5188863;27;19997;-79
2024/04/25 13:34:26;;;;;;;6.45;3.58;;;;;;;;;;5151139;27;20013;-79
2024/04/25 13:36:53;;;;;;;7.78;2.92;;;;;;;;;;5164048;27;20012;-80
2024/04/25 13:39:18;;;;;;;8.00;3.67;;;;;;;;;;5196906;27;20023;-79
2024/04/25 13:41:44;;;;;;;7.15;3.28;;;;;;;;;;5151569;27;20000;-79
2024/04/25 13:44:09;;;;;;;8.45;3.63;;;;;;;;;;5186365;27;20010;-80
2024/04/25 13:46:35;;;;;;;6.40;3.15;;;;;;;;;;5193604;27;19988;-79
2024/04/25 13:49:04;;;;;;;7.07;3.13;;;;;;;;;;5193944;27;20016;-79
2024/04/25 13:51:30;;;;;;;6.15;3.50;;;;;;;;;;5163780;27;20009;-79
2024/04/25 13:53:55;;;;;;;7.18;3.38;;;;;;;;;;5165573;27;20052;-80
2024/04/25 13:56:21;;;;;;;5.65;3.25;;;;;;;;;;5185481;27;20015;-79
2024/04/25 13:58:46;;;;;;;5.35;3.15;;;;;;;;;;5149506;27;20005;-80
2024/04/25 14:01:18;;;;;;;5.35;3.15;;;;;;;;;;5147823;27;20000;-79
2024/04/25 14:03:48;;;;;;;6.97;3.60;;;;;;;;;;5181215;27;20005;-79
2024/04/25 14:06:14;;;;;;;7.57;3.50;;;;;;;;;;5162796;27;20000;-79
2024/04/25 14:08:41;;;;;;;8.32;3.35;;;;;;;;;;5174576;27;20378;-79
2024/04/25 14:11:12;;;;;;;11.63;3.97;;;;;;;;;;5150805;27;19997;-79
2024/04/25 14:13:37;;;;;;;6.07;3.58;;;;;;;;;;5150061;27;20008;-79
2024/04/25 14:16:03;;;;;;;6.13;3.40;;;;;;;;;;5138521;27;20009;-79
2024/04/25 14:18:28;;;;;;;6.55;3.50;;;;;;;;;;5170579;27;20007;-78
2024/04/25 14:20:54;;;;;;;7.30;3.60;;;;;;;;;;5141319;27;20013;-79
2024/04/25 14:23:19;;;;;;;6.97;3.53;;;;;;;;;;5166689;27;20309;-78
2024/04/25 14:28:44;;;;;;;5.63;3.47;;;;;;;;;;5164296;27;20080;-80
2024/04/25 14:31:18;;;;;;;9.70;3.92;;;;;;;;;;5169695;27;20016;-80
2024/04/25 14:33:44;;;;;;;6.93;3.47;;;;;;;;;;5140778;27;20004;-78
2024/04/25 14:36:10;;;;;;;10.05;3.70;;;;;;;;;;5135878;27;20000;-78
2024/04/25 14:38:35;;;;;;;7.95;3.60;;;;;;;;;;5157662;27;20015;-78
2024/04/25 14:41:03;;;;;;;7.70;3.70;;;;;;;;;;5137065;27;20016;-78
2024/04/25 14:43:30;;;;;;;8.65;3.95;;;;;;;;;;5143836;27;20000;-79
2024/04/25 14:45:59;;;;;;;7.47;4.10;;;;;;;;;;5133406;27;20016;-79
2024/04/25 14:48:26;;;;;;;7.22;4.30;;;;;;;;;;5162662;27;20011;-79